Time;durP1;ratioP1;P1;durP2;ratioP2;P2;SDS_P1;SDS_P2;PMS_P1;PMS_P2;Temp;Humidity;BMP_temperature;BMP_pressure;BME280_temperature;BME280_humidity;BME280_pressure;Samples;Min_cycle;Max_cycle;Signal;HPM_P1;HPM_P2
2024/04/17 00:00:04;;;;;;;10.63;4.30;;;4.10;81.20;;;;;;4982601;28;20016;-77
2024/04/17 00:02:30;;;;;;;18.20;5.72;;;4.00;81.10;;;;;;5002326;28;20570;-76
2024/04/17 00:04:55;;;;;;;19.75;5.47;;;4.00;81.20;;;;;;5013810;28;20081;-77
2024/04/17 00:07:21;;;;;;;16.75;5.47;;;3.90;81.20;;;;;;4988155;28;20020;-76
2024/04/17 00:09:47;;;;;;;20.02;5.03;;;4.10;81.30;;;;;;5012982;28;20480;-76
2024/04/17 00:12:13;;;;;;;15.40;5.40;;;3.90;81.20;;;;;;5017274;28;20036;-76
2024/04/17 00:14:39;;;;;;;13.13;4.75;;;3.80;81.20;;;;;;5013705;28;20466;-77
2024/04/17 00:17:05;;;;;;;16.98;5.20;;;3.80;81.20;;;;;;4990639;28;20023;-76
2024/04/17 00:19:30;;;;;;;16.20;5.47;;;3.80;81.20;;;;;;4986010;28;20052;-77
2024/04/17 00:21:56;;;;;;;18.23;5.22;;;3.80;81.30;;;;;;5018108;28;20012;-77
2024/04/17 00:24:22;;;;;;;17.35;5.07;;;3.80;81.30;;;;;;5011382;28;20038;-77
2024/04/17 00:26:48;;;;;;;12.93;4.97;;;3.70;81.30;;;;;;5027404;28;20378;-77
2024/04/17 00:29:19;;;;;;;15.13;5.55;;;3.70;81.30;;;;;;5017935;28;20016;-77
2024/04/17 00:31:44;;;;;;;22.45;5.65;;;3.70;81.40;;;;;;4984910;28;20040;-77
2024/04/17 00:34:10;;;;;;;12.35;4.85;;;3.70;81.40;;;;;;5010621;28;20015;-77
2024/04/17 00:36:36;;;;;;;14.38;5.10;;;3.60;81.40;;;;;;5025186;28;20563;-77
2024/04/17 00:39:03;;;;;;;14.68;5.30;;;3.60;81.40;;;;;;5017242;28;20441;-77
2024/04/17 00:41:29;;;;;;;19.88;6.05;;;3.60;81.40;;;;;;5016115;28;20016;-77
2024/04/17 00:43:55;;;;;;;14.95;5.15;;;3.50;81.40;;;;;;5016839;28;20459;-77
2024/04/17 00:46:22;;;;;;;13.57;5.30;;;3.50;81.40;;;;;;5030355;28;20012;-77
2024/04/17 00:48:48;;;;;;;25.15;5.95;;;3.50;81.40;;;;;;5017115;28;20352;-77
2024/04/17 00:51:14;;;;;;;16.02;5.78;;;3.50;81.50;;;;;;5016974;28;20746;-77
2024/04/17 00:53:41;;;;;;;16.67;5.82;;;3.50;81.50;;;;;;5016964;28;20052;-77
2024/04/17 00:56:07;;;;;;;23.52;6.90;;;3.50;81.60;;;;;;5016678;28;20464;-77
2024/04/17 00:58:34;;;;;;;10.35;5.30;;;3.40;81.60;;;;;;5015449;28;20027;-77
2024/04/17 01:01:00;;;;;;;18.95;5.85;;;3.50;81.60;;;;;;5015631;28;20023;-77
2024/04/17 01:03:26;;;;;;;17.75;5.95;;;3.40;81.60;;;;;;5016559;28;20022;-77
2024/04/17 01:05:52;;;;;;;17.15;5.35;;;3.40;81.60;;;;;;4989829;28;20029;-76
2024/04/17 01:08:18;;;;;;;13.30;5.50;;;3.40;81.60;;;;;;5012989;28;20366;-76
2024/04/17 01:10:43;;;;;;;18.27;5.65;;;3.40;81.60;;;;;;5014307;28;20016;-76
2024/04/17 01:13:09;;;;;;;12.80;5.28;;;3.40;81.70;;;;;;5016183;28;20346;-76
2024/04/17 01:15:36;;;;;;;19.60;6.00;;;3.50;81.70;;;;;;5017167;28;20016;-77
2024/04/17 01:18:03;;;;;;;19.50;5.72;;;3.30;81.70;;;;;;5016709;28;20024;-76
2024/04/17 01:20:29;;;;;;;17.23;6.28;;;3.30;81.70;;;;;;5016437;28;20043;-76
2024/04/17 01:22:55;;;;;;;18.45;5.13;;;3.30;81.80;;;;;;4989216;28;20016;-76
2024/04/17 01:25:21;;;;;;;16.80;5.60;;;3.30;81.80;;;;;;4981608;28;20047;-76
2024/04/17 01:27:46;;;;;;;17.83;5.97;;;3.20;81.70;;;;;;4995944;28;20015;-76
2024/04/17 01:30:12;;;;;;;12.48;5.70;;;3.20;81.80;;;;;;5021384;28;20027;-76
2024/04/17 01:32:38;;;;;;;18.00;5.78;;;3.20;81.80;;;;;;4989788;28;20016;-76
2024/04/17 01:35:04;;;;;;;14.25;5.85;;;3.20;81.80;;;;;;5016596;28;20016;-76
2024/04/17 01:37:30;;;;;;;12.95;5.68;;;3.20;81.80;;;;;;4996442;28;20016;-76
2024/04/17 01:39:56;;;;;;;20.77;5.60;;;3.20;81.80;;;;;;5010778;28;20047;-76
2024/04/17 01:42:22;;;;;;;15.25;6.05;;;3.20;81.80;;;;;;5015987;28;20015;-76
2024/04/17 01:44:48;;;;;;;14.52;5.95;;;3.20;82.00;;;;;;5030146;28;20011;-76
2024/04/17 01:47:14;;;;;;;14.85;5.85;;;3.20;81.90;;;;;;4995910;28;20467;-76
2024/04/17 01:49:40;;;;;;;19.10;6.18;;;3.20;82.00;;;;;;5016014;28;20015;-76
2024/04/17 01:52:06;;;;;;;13.60;6.13;;;3.20;82.00;;;;;;5016949;28;20483;-76
2024/04/17 01:54:32;;;;;;;17.08;6.28;;;3.30;82.00;;;;;;5000625;28;20028;-76
2024/04/17 01:56:57;;;;;;;16.80;6.25;;;3.30;82.10;;;;;;4982236;28;20012;-77
2024/04/17 01:59:23;;;;;;;19.45;5.60;;;3.30;82.10;;;;;;5016119;28;20026;-76
2024/04/17 02:01:49;;;;;;;14.27;5.50;;;3.30;82.20;;;;;;4989857;28;20368;-76
2024/04/17 02:04:15;;;;;;;15.60;6.10;;;3.30;82.20;;;;;;4989783;28;20079;-76
2024/04/17 02:06:40;;;;;;;17.42;5.78;;;3.40;82.30;;;;;;4982921;28;20013;-76
2024/04/17 02:09:06;;;;;;;14.88;6.40;;;3.40;82.30;;;;;;5016011;28;20012;-76
2024/04/17 02:11:32;;;;;;;19.48;6.60;;;3.40;82.30;;;;;;5013279;28;20031;-76
2024/04/17 02:13:58;;;;;;;15.57;6.30;;;3.40;82.30;;;;;;5015229;28;20471;-76
2024/04/17 02:16:24;;;;;;;16.65;6.40;;;3.50;82.40;;;;;;5013344;28;20015;-76
2024/04/17 02:18:50;;;;;;;15.18;6.32;;;3.50;82.40;;;;;;5023437;28;20479;-76
2024/04/17 02:21:16;;;;;;;17.10;6.63;;;3.50;82.50;;;;;;5011569;28;20004;-77
2024/04/17 02:23:41;;;;;;;14.55;5.68;;;3.60;82.50;;;;;;5016335;28;20016;-77
2024/04/17 02:26:08;;;;;;;18.77;6.20;;;3.60;82.50;;;;;;5016500;28;20012;-77
2024/04/17 02:28:34;;;;;;;20.08;6.68;;;3.60;82.50;;;;;;5015396;28;20032;-76
2024/04/17 02:31:00;;;;;;;15.50;5.55;;;3.70;82.60;;;;;;5014328;28;20016;-77
2024/04/17 02:33:25;;;;;;;22.92;6.00;;;3.70;82.60;;;;;;5015123;28;20012;-76
2024/04/17 02:35:51;;;;;;;17.88;6.30;;;3.70;82.60;;;;;;5016243;28;20034;-77
2024/04/17 02:38:17;;;;;;;16.63;5.82;;;3.80;82.70;;;;;;4994489;28;20092;-76
2024/04/17 02:40:43;;;;;;;17.50;5.88;;;3.80;82.70;;;;;;5014382;28;20016;-77
2024/04/17 02:43:09;;;;;;;17.35;6.10;;;3.80;82.80;;;;;;5015105;28;20460;-76
2024/04/17 02:45:35;;;;;;;17.98;6.32;;;3.90;82.80;;;;;;5026935;28;20012;-77
2024/04/17 02:48:01;;;;;;;15.60;6.32;;;3.90;82.80;;;;;;5016448;28;20012;-77
2024/04/17 02:50:37;;;;;;;14.43;6.65;;;4.00;82.80;;;;;;5015883;28;20480;-77
2024/04/17 02:53:03;;;;;;;16.88;5.72;;;4.00;82.90;;;;;;5015602;28;20039;-77
2024/04/17 02:55:29;;;;;;;15.70;5.80;;;4.00;82.90;;;;;;5010406;28;20459;-77
2024/04/17 02:57:55;;;;;;;14.48;6.60;;;4.10;83.00;;;;;;4988896;28;20016;-77
2024/04/17 03:00:21;;;;;;;22.50;6.65;;;4.10;83.00;;;;;;5016059;28;20515;-77
2024/04/17 03:02:47;;;;;;;22.05;6.40;;;4.10;83.00;;;;;;5015872;28;20027;-77
2024/04/17 03:05:12;;;;;;;21.85;6.50;;;4.10;83.00;;;;;;5016356;28;20012;-77
2024/04/17 03:07:38;;;;;;;17.83;6.55;;;4.20;83.10;;;;;;5004259;28;20029;-77
2024/04/17 03:10:04;;;;;;;17.77;5.97;;;4.20;83.10;;;;;;5005757;28;20060;-77
2024/04/17 03:12:30;;;;;;;20.55;6.20;;;4.20;83.10;;;;;;5015762;28;20537;-77
2024/04/17 03:14:56;;;;;;;15.82;6.50;;;4.20;83.10;;;;;;5016042;28;20024;-77
2024/04/17 03:17:22;;;;;;;14.80;5.30;;;4.20;83.10;;;;;;5015871;28;20102;-77
2024/04/17 03:19:48;;;;;;;16.48;6.35;;;4.40;83.20;;;;;;4981207;28;20078;-77
2024/04/17 03:22:34;;;;;;;16.65;5.90;;;4.30;83.20;;;;;;4992724;28;20411;-77
2024/04/17 03:25:00;;;;;;;14.20;6.00;;;4.40;83.20;;;;;;5015248;28;20024;-77
2024/04/17 03:27:26;;;;;;;17.08;5.68;;;4.40;83.30;;;;;;5011998;28;20463;-77
2024/04/17 03:30:05;;;;;;;13.57;5.53;;;4.50;83.30;;;;;;5013502;28;20093;-77
2024/04/17 03:32:31;;;;;;;12.52;5.60;;;4.60;83.40;;;;;;5015690;28;20032;-77
2024/04/17 03:34:57;;;;;;;19.45;5.47;;;4.60;83.40;;;;;;4984203;28;20093;-77
2024/04/17 03:37:23;;;;;;;10.18;5.10;;;4.60;83.40;;;;;;5014984;28;20027;-77
2024/04/17 03:39:48;;;;;;;13.30;5.32;;;4.70;83.40;;;;;;5015640;28;20030;-77
2024/04/17 03:42:14;;;;;;;14.18;5.63;;;4.70;83.40;;;;;;5014170;28;20021;-77
2024/04/17 03:44:40;;;;;;;17.23;5.82;;;4.70;83.40;;;;;;5021888;28;20015;-77
2024/04/17 03:47:26;;;;;;;10.33;3.63;;;4.70;83.40;;;;;;4999470;28;20024;-76
2024/04/17 03:49:53;;;;;;;13.43;6.05;;;4.80;83.50;;;;;;5018559;28;20011;-76
2024/04/17 03:52:19;;;;;;;12.23;5.22;;;4.80;83.50;;;;;;5018282;28;20023;-76
2024/04/17 03:54:45;;;;;;;13.57;5.07;;;4.80;83.40;;;;;;4990745;28;20020;-75
2024/04/17 03:57:11;;;;;;;14.77;5.07;;;4.80;83.40;;;;;;4990554;28;20016;-75
2024/04/17 03:59:37;;;;;;;7.22;4.53;;;4.80;83.40;;;;;;5032490;28;20463;-75
2024/04/17 04:02:11;;;;;;;13.80;4.38;;;4.90;83.40;;;;;;5017716;28;20079;-75
2024/04/17 04:04:41;;;;;;;14.15;4.80;;;4.80;83.40;;;;;;4992206;28;20016;-75
2024/04/17 04:07:06;;;;;;;12.30;4.70;;;4.80;83.40;;;;;;5008437;28;20017;-74
2024/04/17 04:09:32;;;;;;;11.43;5.50;;;4.90;83.40;;;;;;5018182;28;20028;-74
2024/04/17 04:11:58;;;;;;;12.77;4.95;;;4.80;83.40;;;;;;5039049;28;20393;-75
2024/04/17 04:14:24;;;;;;;13.02;4.55;;;4.80;83.40;;;;;;5018475;28;20015;-74
2024/04/17 04:16:49;;;;;;;9.63;4.38;;;4.90;83.40;;;;;;5017848;28;20690;-75
2024/04/17 04:19:16;;;;;;;12.48;4.28;;;4.90;83.40;;;;;;5018675;28;20102;-74
2024/04/17 04:21:41;;;;;;;11.75;4.57;;;4.90;83.40;;;;;;5016663;28;20016;-75
2024/04/17 04:24:07;;;;;;;10.13;4.60;;;4.90;83.40;;;;;;5017499;28;20023;-75
2024/04/17 04:26:33;;;;;;;7.28;4.20;;;4.90;83.40;;;;;;5010634;28;20599;-74
2024/04/17 04:29:19;;;;;;;11.03;4.40;;;5.00;83.40;;;;;;4980510;28;20009;-75
2024/04/17 04:31:45;;;;;;;10.20;5.00;;;4.90;83.40;;;;;;4987613;28;20353;-75
2024/04/17 04:34:10;;;;;;;11.38;4.93;;;4.90;83.40;;;;;;4986352;28;20419;-74
2024/04/17 04:36:37;;;;;;;11.88;4.80;;;4.90;83.40;;;;;;4991954;28;20016;-76
2024/04/17 04:39:02;;;;;;;11.50;4.90;;;4.90;83.40;;;;;;4979517;28;20082;-76
2024/04/17 04:41:30;;;;;;;11.95;4.85;;;4.90;83.40;;;;;;4987285;28;20016;-76
2024/04/17 04:43:55;;;;;;;8.88;4.60;;;4.90;83.40;;;;;;4987303;28;20453;-76
2024/04/17 04:46:21;;;;;;;11.73;5.10;;;4.90;83.40;;;;;;4983649;28;20015;-76
2024/04/17 04:48:47;;;;;;;9.73;4.93;;;4.90;83.50;;;;;;4986294;28;20015;-76
2024/04/17 04:51:14;;;;;;;9.00;4.50;;;4.90;83.50;;;;;;4961189;28;20008;-76
2024/04/17 04:53:39;;;;;;;8.00;4.30;;;4.90;83.50;;;;;;4986348;28;20006;-76
2024/04/17 04:56:05;;;;;;;6.88;4.53;;;4.90;83.50;;;;;;4952881;28;20059;-76
2024/04/17 04:58:31;;;;;;;9.50;4.65;;;4.90;83.50;;;;;;4986371;28;20027;-76
2024/04/17 05:00:57;;;;;;;8.00;4.88;;;4.90;83.50;;;;;;4953528;28;20546;-76
2024/04/17 05:03:23;;;;;;;9.60;5.28;;;5.00;83.60;;;;;;4981752;28;20058;-76
2024/04/17 05:05:49;;;;;;;10.10;4.80;;;5.00;83.60;;;;;;4958459;28;20084;-76
2024/04/17 05:08:15;;;;;;;8.35;4.30;;;5.00;83.60;;;;;;4981504;28;20008;-76
2024/04/17 05:10:41;;;;;;;10.10;4.47;;;5.00;83.60;;;;;;4982626;28;20471;-77
2024/04/17 05:13:06;;;;;;;11.55;4.70;;;5.00;83.60;;;;;;4982335;28;20617;-76
2024/04/17 05:15:32;;;;;;;9.23;5.18;;;5.00;83.60;;;;;;4981992;28;20008;-77
2024/04/17 05:17:58;;;;;;;9.60;4.93;;;5.00;83.60;;;;;;4980413;28;20468;-76
2024/04/17 05:20:26;;;;;;;12.98;5.47;;;5.00;83.60;;;;;;4979719;28;20538;-76
2024/04/17 05:22:52;;;;;;;12.63;5.40;;;5.00;83.60;;;;;;4954951;28;20332;-76
2024/04/17 05:25:20;;;;;;;12.77;4.72;;;5.00;83.60;;;;;;4980029;28;20020;-76
2024/04/17 05:27:46;;;;;;;7.90;4.80;;;5.10;83.70;;;;;;5003553;28;20016;-76
2024/04/17 05:30:12;;;;;;;12.10;5.35;;;5.10;83.70;;;;;;5013978;28;20442;-76
2024/04/17 05:32:38;;;;;;;11.88;5.13;;;5.10;83.70;;;;;;5013445;28;20052;-76
2024/04/17 05:35:05;;;;;;;11.50;5.05;;;5.10;83.70;;;;;;5021154;28;20018;-76
2024/04/17 05:37:33;;;;;;;13.40;5.15;;;5.10;83.70;;;;;;4992548;28;20004;-76
2024/04/17 05:39:59;;;;;;;8.68;5.30;;;5.20;83.70;;;;;;5015018;28;20385;-76
2024/04/17 05:42:26;;;;;;;11.50;4.90;;;5.20;83.80;;;;;;5020227;28;20015;-76
2024/04/17 05:44:52;;;;;;;10.25;4.65;;;5.20;83.80;;;;;;5012797;28;20004;-76
2024/04/17 05:47:18;;;;;;;10.63;5.50;;;5.30;83.80;;;;;;4983878;28;20189;-76
2024/04/17 05:49:44;;;;;;;10.07;5.03;;;5.30;83.80;;;;;;5012381;28;20085;-76
2024/04/17 05:52:10;;;;;;;8.57;4.55;;;5.30;83.80;;;;;;4992941;28;20348;-76
2024/04/17 05:54:36;;;;;;;10.70;5.28;;;5.40;83.90;;;;;;5013366;28;20023;-76
2024/04/17 05:57:02;;;;;;;10.77;5.28;;;5.40;83.90;;;;;;5013297;28;20452;-76
2024/04/17 05:59:28;;;;;;;9.98;5.03;;;5.40;83.90;;;;;;5013612;28;20018;-76
2024/04/17 06:01:55;;;;;;;10.15;4.45;;;5.50;83.90;;;;;;5017605;28;20019;-76
2024/04/17 06:04:21;;;;;;;7.60;4.13;;;5.40;83.90;;;;;;5016756;28;20035;-77
2024/04/17 06:06:46;;;;;;;8.73;3.97;;;5.40;83.80;;;;;;4995084;28;20008;-77
2024/04/17 06:09:12;;;;;;;7.03;4.50;;;5.50;83.90;;;;;;5018329;28;20008;-77
2024/04/17 06:11:38;;;;;;;7.78;3.97;;;5.50;83.90;;;;;;5015807;28;20108;-75
2024/04/17 06:14:04;;;;;;;5.88;3.38;;;5.50;83.90;;;;;;5019605;28;20020;-77
2024/04/17 06:16:30;;;;;;;8.60;3.38;;;5.50;83.90;;;;;;5007508;28;20012;-77
2024/04/17 06:18:55;;;;;;;9.93;3.88;;;5.60;83.90;;;;;;4986212;28;20028;-76
2024/04/17 06:21:21;;;;;;;5.60;3.00;;;5.70;83.90;;;;;;5013761;28;20016;-77
2024/04/17 06:23:47;;;;;;;5.50;2.90;;;5.70;83.90;;;;;;5014321;28;20020;-77
2024/04/17 06:26:13;;;;;;;4.35;2.70;;;5.80;83.80;;;;;;5020914;28;20353;-76
2024/04/17 06:28:39;;;;;;;4.75;2.60;;;5.90;83.90;;;;;;5013582;28;20020;-76
2024/04/17 06:31:05;;;;;;;6.95;2.65;;;5.90;83.80;;;;;;5013794;28;20093;-76
2024/04/17 06:33:31;;;;;;;2.72;2.10;;;6.00;83.80;;;;;;5027555;28;20027;-76
2024/04/17 06:35:58;;;;;;;5.97;2.33;;;6.10;83.70;;;;;;5014052;28;20016;-77
2024/04/17 06:38:24;;;;;;;6.70;2.10;;;6.10;83.50;;;;;;5021153;28;20040;-76
2024/04/17 06:40:49;;;;;;;2.90;1.90;;;6.10;83.30;;;;;;5013957;28;20093;-76
2024/04/17 06:43:16;;;;;;;2.83;1.83;;;6.20;83.20;;;;;;4986480;28;20015;-77
2024/04/17 06:45:42;;;;;;;3.22;1.80;;;6.20;83.10;;;;;;4981533;28;20023;-76
2024/04/17 06:48:08;;;;;;;5.53;1.80;;;6.20;82.90;;;;;;4980741;28;20008;-76
2024/04/17 06:50:35;;;;;;;3.70;1.70;;;6.20;82.40;;;;;;5009362;28;20015;-76
2024/04/17 06:53:02;;;;;;;5.30;1.60;;;6.10;82.10;;;;;;4980657;28;20019;-77
2024/04/17 06:55:27;;;;;;;3.50;1.50;;;6.10;81.90;;;;;;5006793;28;20019;-77
2024/04/17 06:57:53;;;;;;;3.25;1.52;;;6.10;81.60;;;;;;5013719;28;20022;-76
2024/04/17 07:00:20;;;;;;;3.58;1.77;;;6.00;81.40;;;;;;5008315;28;20075;-76
2024/04/17 07:02:46;;;;;;;2.35;1.77;;;6.00;81.30;;;;;;5005802;28;20023;-76
2024/04/17 07:05:12;;;;;;;4.20;1.75;;;5.90;81.30;;;;;;4993419;28;20424;-76
2024/04/17 07:07:38;;;;;;;6.07;2.13;;;5.90;81.40;;;;;;5015991;28;20007;-76
2024/04/17 07:10:04;;;;;;;7.72;3.70;;;5.80;81.40;;;;;;5009819;28;20015;-76
2024/04/17 07:12:30;;;;;;;5.20;2.35;;;5.70;81.50;;;;;;5013416;28;20016;-76
2024/04/17 07:14:56;;;;;;;4.63;1.77;;;5.80;81.60;;;;;;5007798;28;20044;-77
2024/04/17 07:17:22;;;;;;;5.50;2.10;;;5.80;81.70;;;;;;5007900;28;20521;-77
2024/04/17 07:19:48;;;;;;;6.07;1.90;;;5.90;81.90;;;;;;5010604;28;20027;-77
2024/04/17 07:22:14;;;;;;;7.80;2.20;;;5.90;81.90;;;;;;4991724;28;20016;-76
2024/04/17 07:24:40;;;;;;;4.82;2.08;;;6.00;82.00;;;;;;4995010;28;20004;-75
2024/04/17 07:27:06;;;;;;;6.05;2.20;;;6.00;82.00;;;;;;4995237;28;20684;-76
2024/04/17 07:29:34;;;;;;;5.00;2.22;;;6.00;82.00;;;;;;4999209;28;20011;-76
2024/04/17 07:31:59;;;;;;;4.97;2.00;;;6.00;82.00;;;;;;4994306;28;20016;-76
2024/04/17 07:34:25;;;;;;;7.07;2.00;;;6.10;82.10;;;;;;4996389;28;20430;-76
2024/04/17 07:36:51;;;;;;;6.30;2.03;;;6.20;82.10;;;;;;4993434;28;20023;-75
2024/04/17 07:39:17;;;;;;;4.35;1.80;;;6.20;82.20;;;;;;4971833;28;20024;-75
2024/04/17 07:41:43;;;;;;;9.75;2.25;;;6.20;82.20;;;;;;4995198;28;20024;-76
2024/04/17 07:44:09;;;;;;;3.60;1.90;;;6.20;82.20;;;;;;5005559;28;20023;-77
2024/04/17 07:46:35;;;;;;;7.20;2.72;;;6.20;82.30;;;;;;5009489;28;20555;-77
2024/04/17 07:49:00;;;;;;;9.60;3.47;;;6.20;82.30;;;;;;4981651;28;20112;-76
2024/04/17 07:51:26;;;;;;;5.35;2.30;;;6.20;82.30;;;;;;5015303;28;20004;-76
2024/04/17 07:53:53;;;;;;;7.10;2.75;;;6.20;82.40;;;;;;5009034;28;20031;-76
2024/04/17 07:56:19;;;;;;;8.15;2.53;;;6.20;82.40;;;;;;4981658;28;20004;-76
2024/04/17 07:58:44;;;;;;;7.15;2.72;;;6.30;82.50;;;;;;5012994;28;20488;-76
2024/04/17 08:01:10;;;;;;;4.65;1.85;;;6.30;82.50;;;;;;5008974;28;20004;-76
2024/04/17 08:03:36;;;;;;;6.63;2.33;;;6.30;82.60;;;;;;5006703;28;20018;-77
2024/04/17 08:06:02;;;;;;;7.35;2.47;;;6.30;82.60;;;;;;4964778;28;20686;-76
2024/04/17 08:08:28;;;;;;;3.65;2.30;;;6.30;82.60;;;;;;4997767;28;20015;-74
2024/04/17 08:10:54;;;;;;;7.90;2.05;;;6.30;82.70;;;;;;4995403;28;20537;-76
2024/04/17 08:13:19;;;;;;;6.10;2.53;;;6.30;82.70;;;;;;4973332;28;20121;-76
2024/04/17 08:15:52;;;;;;;7.70;2.78;;;6.30;82.70;;;;;;4997177;28;20027;-75
2024/04/17 08:18:18;;;;;;;7.75;2.85;;;6.30;82.70;;;;;;4970192;28;20008;-75
2024/04/17 08:20:44;;;;;;;6.32;2.05;;;6.30;82.80;;;;;;4997805;28;20029;-76
2024/04/17 08:23:11;;;;;;;6.43;2.50;;;6.20;82.70;;;;;;4973204;28;20501;-76
2024/04/17 08:25:36;;;;;;;8.80;2.83;;;6.20;82.60;;;;;;4975298;28;20020;-75
2024/04/17 08:28:02;;;;;;;4.97;2.20;;;6.20;82.70;;;;;;5001815;28;20527;-75
2024/04/17 08:30:29;;;;;;;7.20;2.60;;;6.20;82.70;;;;;;4992835;28;20004;-76
2024/04/17 08:32:54;;;;;;;9.57;2.70;;;6.30;82.70;;;;;;5002492;28;20004;-75
2024/04/17 08:35:20;;;;;;;8.82;2.85;;;6.20;82.80;;;;;;4982080;28;20012;-76
2024/04/17 08:37:46;;;;;;;7.13;2.50;;;6.20;82.80;;;;;;4984102;28;20016;-76
2024/04/17 08:40:14;;;;;;;7.82;2.60;;;6.30;82.80;;;;;;5008594;28;20016;-76
2024/04/17 08:42:41;;;;;;;7.15;2.30;;;6.20;82.80;;;;;;5005212;28;20085;-76
2024/04/17 08:45:11;;;;;;;6.25;2.50;;;6.30;82.80;;;;;;4980078;28;20430;-77
2024/04/17 08:47:40;;;;;;;8.55;2.50;;;6.30;82.90;;;;;;5010050;28;20004;-76
2024/04/17 08:50:07;;;;;;;5.93;2.30;;;6.40;82.90;;;;;;5009975;28;20018;-76
2024/04/17 08:52:34;;;;;;;8.60;2.35;;;6.30;82.80;;;;;;5008615;28;20004;-77
2024/04/17 08:55:01;;;;;;;6.47;2.30;;;6.30;82.90;;;;;;5011040;28;20898;-77
2024/04/17 08:57:27;;;;;;;5.35;2.20;;;6.30;82.80;;;;;;5013920;28;20012;-76
2024/04/17 08:59:53;;;;;;;8.23;2.22;;;6.40;82.90;;;;;;5005912;28;20109;-76
2024/04/17 09:02:19;;;;;;;4.85;2.38;;;6.40;82.90;;;;;;5008260;28;20348;-77
2024/04/17 09:04:46;;;;;;;10.80;2.72;;;6.50;82.90;;;;;;5010028;28;20384;-76
2024/04/17 09:07:13;;;;;;;7.75;2.70;;;6.50;82.90;;;;;;4988151;28;20501;-77
2024/04/17 09:09:40;;;;;;;7.32;3.05;;;6.60;83.10;;;;;;4982302;28;20008;-76
2024/04/17 09:12:10;;;;;;;8.77;2.90;;;6.70;83.00;;;;;;5013929;28;20023;-77
2024/04/17 09:14:36;;;;;;;7.28;2.65;;;6.80;83.00;;;;;;5015333;28;20008;-77
2024/04/17 09:17:02;;;;;;;9.20;2.47;;;6.90;83.00;;;;;;5007573;28;20015;-77
2024/04/17 09:19:28;;;;;;;7.75;2.60;;;7.00;83.00;;;;;;5007457;28;20011;-76
2024/04/17 09:21:54;;;;;;;8.30;3.00;;;7.10;83.00;;;;;;5007888;28;20513;-76
2024/04/17 09:24:20;;;;;;;8.93;2.40;;;7.10;83.00;;;;;;5009565;28;20016;-77
2024/04/17 09:26:46;;;;;;;7.57;2.67;;;7.30;83.00;;;;;;4982838;28;20480;-77
2024/04/17 09:29:16;;;;;;;9.82;2.33;;;7.40;82.90;;;;;;5013498;28;20016;-77
2024/04/17 09:31:46;;;;;;;9.85;2.60;;;7.40;82.80;;;;;;5015063;28;20019;-77
2024/04/17 09:34:16;;;;;;;11.23;2.78;;;7.50;82.80;;;;;;5021798;28;20035;-77
2024/04/17 09:36:45;;;;;;;6.32;2.45;;;7.50;82.60;;;;;;4984389;28;20014;-77
2024/04/17 09:39:11;;;;;;;9.38;2.65;;;7.50;82.50;;;;;;5007063;28;20089;-77
2024/04/17 09:41:42;;;;;;;8.30;2.80;;;7.50;82.50;;;;;;5012852;28;20035;-77
2024/04/17 09:44:11;;;;;;;10.20;2.63;;;7.40;82.10;;;;;;5007555;28;20023;-77
2024/04/17 09:46:43;;;;;;;8.25;2.40;;;7.50;82.00;;;;;;5007559;28;20008;-77
2024/04/17 09:49:29;;;;;;;10.52;2.67;;;7.70;82.30;;;;;;5007741;28;20327;-77
2024/04/17 09:51:59;;;;;;;6.93;2.38;;;8.00;82.40;;;;;;5008196;28;20032;-77
2024/04/17 09:54:26;;;;;;;7.35;2.53;;;8.10;82.00;;;;;;5008864;28;20016;-77
2024/04/17 09:56:53;;;;;;;6.93;2.15;;;8.10;81.60;;;;;;5006846;28;20011;-78
2024/04/17 09:59:21;;;;;;;9.57;2.55;;;8.20;81.40;;;;;;5010624;28;20361;-78
2024/04/17 10:01:50;;;;;;;8.10;2.92;;;8.30;81.50;;;;;;5007984;28;20036;-78
2024/04/17 10:04:17;;;;;;;8.18;2.47;;;8.40;81.50;;;;;;5010281;28;20481;-78
2024/04/17 10:06:44;;;;;;;9.82;3.25;;;8.60;81.50;;;;;;5009170;28;20016;-81
2024/04/17 10:09:13;;;;;;;7.30;2.88;;;8.90;81.60;;;;;;5009610;28;20012;-82
2024/04/17 10:11:40;;;;;;;9.10;2.60;;;9.20;81.60;;;;;;4980174;28;20023;-84
2024/04/17 16:22:18;;;;;;;5.53;2.65;;;5.70;83.70;;;;;;4983483;28;20013;-90
2024/04/17 16:25:09;;;;;;;8.32;3.30;;;5.60;83.60;;;;;;4961579;28;20420;-91
2024/04/17 16:27:41;;;;;;;7.28;2.60;;;5.60;83.50;;;;;;4987257;28;20024;-90
2024/04/17 16:30:15;;;;;;;3.67;2.50;;;5.60;83.50;;;;;;4987855;28;20024;-91
2024/04/17 16:32:41;;;;;;;6.55;2.90;;;5.50;83.50;;;;;;4958318;28;20035;-89
2024/04/17 16:35:07;;;;;;;5.32;2.63;;;5.60;83.50;;;;;;4961470;28;20035;-90
2024/04/17 16:37:33;;;;;;;4.15;2.90;;;5.50;83.60;;;;;;4960755;28;20024;-90
2024/04/17 16:40:06;;;;;;;4.82;2.72;;;5.50;83.60;;;;;;4987707;28;20024;-89
2024/04/17 16:42:31;;;;;;;4.57;2.65;;;5.40;83.70;;;;;;4961143;28;20428;-87
2024/04/17 16:44:57;;;;;;;5.97;3.10;;;5.40;83.70;;;;;;4987912;28;20028;-84
2024/04/17 16:47:24;;;;;;;5.53;3.25;;;5.40;83.80;;;;;;4987388;28;20024;-84
2024/04/17 16:49:50;;;;;;;7.15;2.80;;;5.40;83.90;;;;;;4987035;28;20023;-83
2024/04/17 16:52:16;;;;;;;6.00;2.90;;;5.40;84.00;;;;;;4959686;28;20592;-83
2024/04/17 16:54:41;;;;;;;6.40;2.97;;;5.40;83.90;;;;;;4961141;28;20543;-81
2024/04/17 16:57:07;;;;;;;5.47;2.55;;;5.40;83.90;;;;;;4986904;28;20017;-82
2024/04/17 16:59:33;;;;;;;5.28;2.75;;;5.30;83.90;;;;;;4960656;28;20061;-80
2024/04/17 17:01:59;;;;;;;10.20;3.10;;;5.30;84.00;;;;;;4960822;28;20044;-79
2024/04/17 17:04:25;;;;;;;6.35;2.88;;;5.30;84.00;;;;;;4987433;28;20048;-79
2024/04/17 17:06:50;;;;;;;4.75;2.78;;;5.20;84.00;;;;;;4987174;28;20035;-79
2024/04/17 17:09:16;;;;;;;10.35;3.17;;;5.30;84.10;;;;;;4987283;28;20017;-79
2024/04/17 17:11:42;;;;;;;8.30;2.80;;;5.20;84.10;;;;;;4987447;28;20021;-80
2024/04/17 17:14:10;;;;;;;6.10;2.92;;;5.20;84.20;;;;;;4986580;28;20012;-80
2024/04/17 17:16:36;;;;;;;6.82;2.72;;;5.30;84.40;;;;;;4960753;28;20031;-81
2024/04/17 17:19:02;;;;;;;7.90;3.17;;;5.30;84.40;;;;;;4987419;28;20028;-80
2024/04/17 17:21:28;;;;;;;8.00;2.70;;;5.30;84.50;;;;;;4986862;28;20027;-81
2024/04/17 17:23:54;;;;;;;7.40;3.35;;;5.30;84.40;;;;;;4987088;28;20097;-81
2024/04/17 17:26:20;;;;;;;6.35;3.10;;;5.30;84.40;;;;;;4960654;28;20355;-82
2024/04/17 17:28:47;;;;;;;7.25;2.97;;;5.30;84.50;;;;;;4986813;28;20012;-83
2024/04/17 17:31:13;;;;;;;8.20;3.17;;;5.30;84.50;;;;;;4987159;28;20031;-82
2024/04/17 17:33:39;;;;;;;7.82;3.30;;;5.20;84.50;;;;;;4986975;28;20017;-83
2024/04/17 17:36:05;;;;;;;10.13;3.80;;;5.20;84.50;;;;;;4987458;28;20016;-83
2024/04/17 17:38:38;;;;;;;10.45;3.10;;;5.10;84.50;;;;;;4986203;28;20357;-85
2024/04/17 17:41:12;;;;;;;9.10;3.33;;;5.20;84.60;;;;;;4980171;28;20101;-83
2024/04/17 17:43:42;;;;;;;7.88;3.25;;;5.20;84.60;;;;;;4959442;28;20456;-85
2024/04/17 17:46:12;;;;;;;10.10;3.20;;;5.50;84.70;;;;;;4960246;28;20012;-85
2024/04/17 17:48:40;;;;;;;7.28;3.20;;;5.20;84.50;;;;;;4960154;28;20017;-85
2024/04/17 17:51:07;;;;;;;8.13;3.08;;;5.20;84.50;;;;;;4986431;28;20028;-85
2024/04/17 17:53:33;;;;;;;7.97;2.83;;;5.20;84.50;;;;;;4986933;28;20163;-85
2024/04/17 17:56:06;;;;;;;7.43;3.08;;;5.30;84.60;;;;;;4960070;28;20472;-84
2024/04/17 17:58:33;;;;;;;6.90;3.15;;;5.20;84.60;;;;;;4986637;28;20032;-85
2024/04/17 18:01:00;;;;;;;8.10;3.33;;;5.20;84.60;;;;;;4967468;28;20414;-86
2024/04/17 18:03:27;;;;;;;5.53;3.08;;;5.20;84.60;;;;;;4986688;28;20031;-86
2024/04/17 18:05:55;;;;;;;5.97;3.00;;;5.20;84.60;;;;;;4986807;28;20028;-86
2024/04/17 18:08:21;;;;;;;7.07;3.13;;;5.30;84.70;;;;;;4960466;28;20049;-85
2024/04/17 18:10:48;;;;;;;7.05;3.10;;;5.20;84.70;;;;;;4986830;28;20040;-86
2024/04/17 18:13:14;;;;;;;8.95;3.38;;;5.20;84.60;;;;;;4986204;28;20094;-85
2024/04/17 18:15:40;;;;;;;10.18;3.90;;;5.20;84.60;;;;;;4986998;28;20016;-84
2024/04/17 18:18:06;;;;;;;14.10;3.97;;;5.20;84.60;;;;;;4987022;28;20354;-85
2024/04/17 18:20:33;;;;;;;6.18;3.38;;;5.20;84.60;;;;;;4986743;28;20090;-84
2024/04/17 18:22:59;;;;;;;6.55;3.03;;;5.20;84.60;;;;;;4986316;28;20028;-84
2024/04/17 18:25:28;;;;;;;9.23;3.08;;;5.10;84.60;;;;;;4986891;28;20017;-85
2024/04/17 18:27:55;;;;;;;8.82;3.20;;;5.20;84.60;;;;;;4985997;28;20103;-85
2024/04/17 18:30:20;;;;;;;8.00;3.10;;;5.10;84.60;;;;;;4959991;28;20028;-85
2024/04/17 18:32:46;;;;;;;9.20;3.28;;;5.10;84.60;;;;;;4983837;28;20017;-85
2024/04/17 18:35:12;;;;;;;11.38;3.55;;;5.10;84.70;;;;;;4980381;28;20016;-84
2024/04/17 18:37:38;;;;;;;10.52;3.50;;;5.10;84.70;;;;;;4981896;28;20028;-84
2024/04/17 18:40:06;;;;;;;5.82;3.63;;;5.10;84.80;;;;;;4983986;28;20441;-84
2024/04/17 18:42:34;;;;;;;8.90;3.88;;;5.10;84.80;;;;;;4983167;28;20023;-84
2024/04/17 18:45:01;;;;;;;10.38;3.78;;;5.10;84.80;;;;;;4981768;28;20017;-85
2024/04/17 18:47:27;;;;;;;8.95;3.30;;;5.10;84.90;;;;;;4973673;28;20017;-85
2024/04/17 18:49:53;;;;;;;7.18;3.55;;;5.10;84.90;;;;;;4952618;28;20027;-85
2024/04/17 18:52:18;;;;;;;10.80;4.28;;;5.30;85.00;;;;;;4990567;28;20024;-85
2024/04/17 18:54:48;;;;;;;21.33;10.90;;;5.10;84.90;;;;;;4986474;28;20020;-84
2024/04/17 18:57:14;;;;;;;12.20;5.90;;;5.10;85.00;;;;;;4984773;28;20027;-84